My Dream — DJ3962 — position and weather

sailwx.info

Track history (hours):
 
Tides and Currents Weather Stations Pressure Air Temp Water Temp Dewpoint Dewpoint Depression Visibility Wind Speed Wind Dir Waves Ship Positions

My Dream

Last reported at 2017-Sep-20 16:13 UTC. Time now 2017-Nov-23 07:41 UTC.
Position N 39°50' E 003°10'.
Warning: this ship's position is months out of date.

Type: Sailing vessel. MMSI: 211478870.

Date/timePositionNaut miles runAvg speedWind from/ knotsBaromVisibWave heightAir tempDewpointWater temp
2017-Sep-20 16:13N 39°50' E 003°10'1 1.6
2017-Sep-20 15:53N 39°50' E 003°10'2 5.3
2017-Sep-20 15:31N 39°50' E 003°13'  
2017-Sep-17 15:41N 39°16' E 003°04'1 4.5
2017-Sep-17 15:30N 39°16' E 003°03'3 5.7
2017-Sep-17 15:00N 39°18' E 003°00'2 4.4
2017-Sep-17 14:29N 39°20' E 002°59'0 0.9
2017-Sep-17 13:59N 39°20' E 002°59'0 0.0
2017-Sep-17 13:23N 39°20' E 002°59'0 0.0
2017-Sep-17 12:59N 39°20' E 002°59'1 2.2
2017-Sep-17 12:29N 39°20' E 002°58'3 6.1
2017-Sep-17 12:00N 39°20' E 002°54'3 6.2
2017-Sep-17 11:30N 39°21' E 002°50'3 5.9
2017-Sep-17 10:59N 39°22' E 002°47'3 5.7
2017-Sep-17 10:30N 39°24' E 002°44'3 6.0
2017-Sep-17 09:59N 39°27' E 002°42'3 6.3
2017-Sep-17 09:30N 39°29' E 002°41'3 6.4
2017-Sep-17 08:59N 39°32' E 002°39'2 3.4
2017-Sep-17 08:30N 39°34' E 002°38'  
2017-Sep-14 18:00N 39°34' E 002°38'0 0.0
2017-Sep-14 17:24N 39°34' E 002°38'0 0.0
2017-Sep-14 17:00N 39°34' E 002°38'2 3.5
2017-Sep-14 16:30N 39°33' E 002°39'3 5.9
2017-Sep-14 16:00N 39°30' E 002°41'3 6.3
2017-Sep-14 15:30N 39°27' E 002°43'3 6.1
2017-Sep-14 15:00N 39°24' E 002°44'3 5.6
2017-Sep-14 14:29N 39°22' E 002°46'3 5.5
2017-Sep-14 13:55N 39°21' E 002°50'2 4.6
2017-Sep-14 13:29N 39°20' E 002°52'2 4.5
2017-Sep-14 12:59N 39°19' E 002°55'3 5.2
2017-Sep-14 12:28N 39°18' E 002°58'3 5.1
2017-Sep-14 11:54N 39°17' E 003°02'1 0.4
2017-Sep-14 10:28N 39°17' E 003°02'30 1.1
2017-Sep-13 07:42N 39°45' E 003°16'0 0.0
2017-Sep-12 21:21N 39°44' E 003°16'0 0.0
2017-Sep-12 20:39N 39°44' E 003°16'0 0.0
2017-Sep-12 20:15N 39°44' E 003°16'0 0.0
2017-Sep-12 19:57N 39°44' E 003°16'0 0.0
2017-Sep-12 19:27N 39°44' E 003°16'0 0.0
2017-Sep-12 18:57N 39°44' E 003°16'0 0.0
2017-Sep-12 15:51N 39°44' E 003°16'0 0.0
2017-Sep-12 14:51N 39°44' E 003°16'0 0.0
2017-Sep-12 12:03N 39°44' E 003°16'0 0.0
2017-Sep-12 11:45N 39°44' E 003°16'0 0.0
2017-Sep-12 09:33N 39°44' E 003°16'0 0.0
2017-Sep-12 09:21N 39°44' E 003°16'0 0.0
2017-Sep-12 08:39N 39°44' E 003°16'0 0.0
2017-Sep-11 18:24N 39°44' E 003°16'6 1.8
2017-Sep-11 15:22N 39°48' E 003°11'2 4.6
2017-Sep-11 14:53N 39°49' E 003°09'  
Track history (hours):
 
Tides and Currents Weather Stations Pressure Air Temp Water Temp Dewpoint Dewpoint Depression Visibility Wind Speed Wind Dir Waves Ship Positions

My Dream

Last reported at 2017-Sep-20 16:13 UTC. Time now 2017-Nov-23 07:41 UTC.
Position N 39°50' E 003°10'.
Warning: this ship's position is months out of date.

Type: Sailing vessel. MMSI: 211478870.

Date/timePositionNaut miles runAvg speedWind from/ knotsBaromVisibWave heightAir tempDewpointWater temp
2017-Sep-20 16:13N 39°50' E 003°10'1 1.6
2017-Sep-20 15:53N 39°50' E 003°10'2 5.3
2017-Sep-20 15:31N 39°50' E 003°13'  
2017-Sep-17 15:41N 39°16' E 003°04'1 4.5
2017-Sep-17 15:30N 39°16' E 003°03'3 5.7
2017-Sep-17 15:00N 39°18' E 003°00'2 4.4
2017-Sep-17 14:29N 39°20' E 002°59'0 0.9
2017-Sep-17 13:59N 39°20' E 002°59'0 0.0
2017-Sep-17 13:23N 39°20' E 002°59'0 0.0
2017-Sep-17 12:59N 39°20' E 002°59'1 2.2
2017-Sep-17 12:29N 39°20' E 002°58'3 6.1
2017-Sep-17 12:00N 39°20' E 002°54'3 6.2
2017-Sep-17 11:30N 39°21' E 002°50'3 5.9
2017-Sep-17 10:59N 39°22' E 002°47'3 5.7
2017-Sep-17 10:30N 39°24' E 002°44'3 6.0
2017-Sep-17 09:59N 39°27' E 002°42'3 6.3
2017-Sep-17 09:30N 39°29' E 002°41'3 6.4
2017-Sep-17 08:59N 39°32' E 002°39'2 3.4
2017-Sep-17 08:30N 39°34' E 002°38'  
2017-Sep-14 18:00N 39°34' E 002°38'0 0.0
2017-Sep-14 17:24N 39°34' E 002°38'0 0.0
2017-Sep-14 17:00N 39°34' E 002°38'2 3.5
2017-Sep-14 16:30N 39°33' E 002°39'3 5.9
2017-Sep-14 16:00N 39°30' E 002°41'3 6.3
2017-Sep-14 15:30N 39°27' E 002°43'3 6.1
2017-Sep-14 15:00N 39°24' E 002°44'3 5.6
2017-Sep-14 14:29N 39°22' E 002°46'3 5.5
2017-Sep-14 13:55N 39°21' E 002°50'2 4.6
2017-Sep-14 13:29N 39°20' E 002°52'2 4.5
2017-Sep-14 12:59N 39°19' E 002°55'3 5.2
2017-Sep-14 12:28N 39°18' E 002°58'3 5.1
2017-Sep-14 11:54N 39°17' E 003°02'1 0.4
2017-Sep-14 10:28N 39°17' E 003°02'30 1.1
2017-Sep-13 07:42N 39°45' E 003°16'0 0.0
2017-Sep-12 21:21N 39°44' E 003°16'0 0.0
2017-Sep-12 20:39N 39°44' E 003°16'0 0.0
2017-Sep-12 20:15N 39°44' E 003°16'0 0.0
2017-Sep-12 19:57N 39°44' E 003°16'0 0.0
2017-Sep-12 19:27N 39°44' E 003°16'0 0.0
2017-Sep-12 18:57N 39°44' E 003°16'0 0.0
2017-Sep-12 15:51N 39°44' E 003°16'0 0.0
2017-Sep-12 14:51N 39°44' E 003°16'0 0.0
2017-Sep-12 12:03N 39°44' E 003°16'0 0.0
2017-Sep-12 11:45N 39°44' E 003°16'0 0.0
2017-Sep-12 09:33N 39°44' E 003°16'0 0.0
2017-Sep-12 09:21N 39°44' E 003°16'0 0.0
2017-Sep-12 08:39N 39°44' E 003°16'0 0.0
2017-Sep-11 18:24N 39°44' E 003°16'6 1.8
2017-Sep-11 15:22N 39°48' E 003°11'2 4.6
2017-Sep-11 14:53N 39°49' E 003°09'  

Dump ship's entire track history